createdAt,value
2019-03-20T00:02:14.739Z,99.90
2019-03-20T00:04:49.666Z,99.90
2019-03-20T00:07:25.942Z,99.90
2019-03-20T00:09:54.330Z,99.90
2019-03-20T00:12:27.090Z,99.90
2019-03-20T00:14:58.649Z,99.90
2019-03-20T00:17:30.857Z,99.90
2019-03-20T00:20:02.153Z,99.90
2019-03-20T00:22:38.983Z,99.90
2019-03-20T00:25:09.930Z,99.90
2019-03-20T00:27:42.071Z,99.90
2019-03-20T00:30:17.397Z,99.90
2019-03-20T00:32:47.655Z,99.90
2019-03-20T00:35:16.299Z,99.90
2019-03-20T00:37:46.318Z,99.90
2019-03-20T00:40:24.357Z,99.90
2019-03-20T00:43:04.128Z,99.90
2019-03-20T00:45:32.526Z,99.90
2019-03-20T00:48:00.922Z,99.90
2019-03-20T00:50:29.554Z,99.90
2019-03-20T00:52:57.957Z,99.90
2019-03-20T00:55:30.960Z,99.90
2019-03-20T00:57:59.601Z,99.90
2019-03-20T01:00:27.993Z,99.90
2019-03-20T01:03:02.037Z,99.90
2019-03-20T01:05:32.318Z,99.90
2019-03-20T01:08:02.339Z,99.90
2019-03-20T01:10:35.323Z,99.90
2019-03-20T01:13:05.417Z,99.90
2019-03-20T01:15:50.121Z,99.90
2019-03-20T01:18:22.544Z,99.90
2019-03-20T01:20:51.356Z,99.90
2019-03-20T01:23:22.381Z,99.90
2019-03-20T01:25:59.553Z,99.90
2019-03-20T01:28:30.894Z,99.90
2019-03-20T01:30:59.291Z,99.90
2019-03-20T01:33:33.314Z,99.90
2019-03-20T01:36:07.654Z,99.90
2019-03-20T01:38:35.600Z,99.90
2019-03-20T01:41:04.317Z,99.90
2019-03-20T01:43:32.753Z,99.90
2019-03-20T01:46:06.810Z,99.90
2019-03-20T01:48:35.201Z,99.90
2019-03-20T01:51:22.488Z,99.90
2019-03-20T01:53:56.804Z,99.90
2019-03-20T01:56:25.189Z,99.90
2019-03-20T01:58:59.493Z,99.90
2019-03-20T02:01:27.882Z,99.90
2019-03-20T02:03:56.273Z,99.90
2019-03-20T02:06:30.113Z,99.90
2019-03-20T02:08:58.666Z,99.90
2019-03-20T02:11:30.738Z,99.90
2019-03-20T02:13:59.079Z,99.90
2019-03-20T02:16:27.466Z,99.90
2019-03-20T02:18:58.877Z,99.90
2019-03-20T02:21:27.271Z,99.90
2019-03-20T02:23:58.333Z,99.90
2019-03-20T02:26:26.728Z,99.90
2019-03-20T02:28:55.128Z,99.90
2019-03-20T02:31:23.540Z,99.90
2019-03-20T02:33:52.171Z,99.90
2019-03-20T02:36:29.423Z,99.90
2019-03-20T02:38:59.296Z,99.90
2019-03-20T02:41:32.254Z,99.90
2019-03-20T02:44:00.667Z,99.90
2019-03-20T02:46:32.166Z,99.90
2019-03-20T02:49:00.746Z,99.90
2019-03-20T02:51:29.186Z,99.90
2019-03-20T02:53:57.584Z,99.90
2019-03-20T02:56:39.576Z,99.90
2019-03-20T02:59:11.090Z,99.90
2019-03-20T03:01:41.113Z,99.90
2019-03-20T03:04:09.501Z,99.90
2019-03-20T03:06:37.898Z,99.90
2019-03-20T03:09:09.614Z,99.90
2019-03-20T03:11:38.000Z,99.90
2019-03-20T03:14:06.390Z,99.90
2019-03-20T03:16:42.313Z,99.90
2019-03-20T03:19:16.882Z,99.90
2019-03-20T03:21:45.330Z,99.90
2019-03-20T03:24:16.574Z,99.90
2019-03-20T03:26:45.203Z,99.90
2019-03-20T03:29:23.945Z,99.90
2019-03-20T03:31:54.819Z,99.90
2019-03-20T03:34:24.887Z,99.90
2019-03-20T03:36:59.461Z,99.90
2019-03-20T03:39:29.486Z,99.90
2019-03-20T03:41:57.873Z,99.90
2019-03-20T03:44:29.197Z,99.90
2019-03-20T03:46:57.578Z,99.90
2019-03-20T03:49:26.999Z,99.90
2019-03-20T03:51:55.386Z,99.90
2019-03-20T03:54:23.752Z,99.90
2019-03-20T03:56:55.257Z,99.90
2019-03-20T03:59:28.129Z,99.90
2019-03-20T04:02:01.132Z,99.90
2019-03-20T04:04:36.577Z,99.90
2019-03-20T04:07:05.023Z,99.90
2019-03-20T04:09:33.432Z,99.90
2019-03-20T04:12:01.974Z,99.90
2019-03-20T04:14:33.517Z,99.90
2019-03-20T04:17:02.702Z,99.90
2019-03-20T04:19:31.242Z,99.90
2019-03-20T04:22:00.197Z,99.90
2019-03-20T04:24:36.299Z,99.90
2019-03-20T04:27:13.648Z,99.90
2019-03-20T04:29:42.733Z,99.90
2019-03-20T04:32:14.287Z,99.90
2019-03-20T04:34:45.219Z,99.90
2019-03-20T04:37:17.929Z,99.90
2019-03-20T04:39:47.083Z,99.90
2019-03-20T04:42:21.263Z,99.90
2019-03-20T04:44:49.648Z,99.90
2019-03-20T04:47:20.745Z,99.90
2019-03-20T04:49:50.974Z,99.90
2019-03-20T04:52:19.600Z,99.90
2019-03-20T04:54:47.986Z,99.90
2019-03-20T04:57:16.629Z,99.90
2019-03-20T04:59:47.993Z,99.90
2019-03-20T05:02:21.017Z,99.90
2019-03-20T05:04:49.425Z,99.90
2019-03-20T05:07:23.981Z,99.90
2019-03-20T05:09:57.924Z,99.90
2019-03-20T05:12:26.300Z,99.90
2019-03-20T05:14:54.702Z,99.90
2019-03-20T05:17:28.776Z,99.90
2019-03-20T05:19:57.402Z,99.90
2019-03-20T05:22:26.046Z,99.90
2019-03-20T05:25:16.079Z,99.90
2019-03-20T05:27:44.736Z,99.90
2019-03-20T05:30:16.659Z,99.90
2019-03-20T05:32:45.311Z,99.90
2019-03-20T05:35:14.565Z,99.90
2019-03-20T05:37:48.595Z,99.90
2019-03-20T05:40:21.562Z,99.90
2019-03-20T05:42:52.467Z,99.90
2019-03-20T05:45:20.850Z,99.90
2019-03-20T05:47:49.249Z,99.90
2019-03-20T05:50:19.011Z,99.90
2019-03-20T05:52:48.074Z,99.90
2019-03-20T05:55:16.458Z,99.90
2019-03-20T05:57:44.874Z,99.90
2019-03-20T06:00:21.777Z,99.90
2019-03-20T06:02:50.702Z,99.90
2019-03-20T06:05:21.306Z,99.90
2019-03-20T06:07:57.818Z,99.90
2019-03-20T06:10:26.233Z,99.90
2019-03-20T06:12:54.647Z,99.90
2019-03-20T06:15:27.120Z,99.90
2019-03-20T06:17:55.534Z,99.90
2019-03-20T06:20:23.924Z,99.90
2019-03-20T06:22:52.313Z,99.90
2019-03-20T06:25:22.367Z,99.90
2019-03-20T06:27:53.590Z,99.90
2019-03-20T06:30:22.063Z,99.90
2019-03-20T06:32:59.690Z,99.90
2019-03-20T06:35:27.369Z,99.90
2019-03-20T06:37:55.772Z,99.90
2019-03-20T06:40:24.372Z,99.90
2019-03-20T06:42:56.081Z,99.90
2019-03-20T06:45:24.479Z,99.90
2019-03-20T06:47:52.867Z,99.90
2019-03-20T06:50:27.529Z,99.90
2019-03-20T06:52:55.931Z,99.90
2019-03-20T06:55:27.174Z,99.90
2019-03-20T06:57:55.556Z,99.90
2019-03-20T07:01:03.182Z,99.90
2019-03-20T07:03:58.778Z,99.90
2019-03-20T07:06:42.091Z,99.90
2019-03-20T07:09:25.598Z,99.90
2019-03-20T07:11:54.039Z,99.90
2019-03-20T07:14:22.667Z,99.90
2019-03-20T07:16:51.045Z,99.90
2019-03-20T07:19:19.689Z,99.90
2019-03-20T07:21:48.085Z,99.90
2019-03-20T07:24:19.594Z,99.90
2019-03-20T07:26:47.978Z,99.90
2019-03-20T07:29:16.382Z,99.90
2019-03-20T07:31:44.757Z,99.90
2019-03-20T07:34:14.104Z,99.90
2019-03-20T07:36:45.198Z,99.90
2019-03-20T07:39:13.619Z,99.90
2019-03-20T07:41:42.004Z,99.90
2019-03-20T07:44:10.377Z,99.90
2019-03-20T07:46:47.390Z,99.90
2019-03-20T07:49:15.774Z,99.90
2019-03-20T07:51:45.366Z,99.90
2019-03-20T07:54:14.756Z,99.90
2019-03-20T07:56:45.864Z,99.90
2019-03-20T07:59:14.290Z,99.90
2019-03-20T08:01:43.713Z,99.90
2019-03-20T08:04:16.689Z,99.90
2019-03-20T08:06:45.098Z,99.90
2019-03-20T08:09:13.501Z,99.90
2019-03-20T08:11:41.931Z,99.90
2019-03-20T08:14:13.206Z,99.90
2019-03-20T08:16:44.545Z,99.90
2019-03-20T08:19:24.861Z,99.90
2019-03-20T08:21:53.241Z,99.90
2019-03-20T08:24:24.605Z,99.90
2019-03-20T08:26:53.229Z,99.90
2019-03-20T08:29:21.997Z,99.90
2019-03-20T08:31:50.386Z,99.90
2019-03-20T08:34:21.669Z,99.90
2019-03-20T08:36:50.115Z,99.90
2019-03-20T08:39:18.541Z,99.90
2019-03-20T08:41:47.204Z,99.90
2019-03-20T08:44:15.620Z,99.90
2019-03-20T08:46:46.940Z,99.90
2019-03-20T08:49:17.800Z,99.90
2019-03-20T08:51:47.161Z,99.90
2019-03-20T08:54:15.560Z,99.90
2019-03-20T08:56:43.945Z,99.90
2019-03-20T08:59:13.886Z,99.90
2019-03-20T09:01:47.821Z,99.90
2019-03-20T09:04:18.769Z,99.90
2019-03-20T09:06:47.155Z,99.90
2019-03-20T09:09:15.601Z,99.90
2019-03-20T09:11:44.002Z,99.90
2019-03-20T09:14:12.398Z,99.90
2019-03-20T09:16:45.041Z,99.90
2019-03-20T09:19:16.342Z,99.90
2019-03-20T09:21:46.361Z,99.90
2019-03-20T09:24:15.005Z,99.90
2019-03-20T09:26:46.341Z,99.90
2019-03-20T09:29:18.854Z,99.90
2019-03-20T09:31:47.537Z,99.90
2019-03-20T09:34:20.183Z,99.90
2019-03-20T09:36:48.565Z,99.90
2019-03-20T09:39:17.005Z,99.90
2019-03-20T09:41:45.585Z,99.90
2019-03-20T09:44:13.998Z,99.90
2019-03-20T09:46:42.472Z,99.90
2019-03-20T09:49:12.493Z,99.90
2019-03-20T09:51:44.513Z,99.90
2019-03-20T09:54:12.919Z,99.90
2019-03-20T09:56:42.965Z,99.90
2019-03-20T09:59:12.090Z,99.90
2019-03-20T10:01:43.420Z,99.60
2019-03-20T10:04:11.826Z,98.60
2019-03-20T10:06:41.847Z,98.50
2019-03-20T10:09:10.261Z,97.70
2019-03-20T10:11:41.593Z,99.90
2019-03-20T10:14:12.949Z,99.90
2019-03-20T10:16:45.544Z,99.90
2019-03-20T10:19:16.345Z,99.60
2019-03-20T10:21:47.459Z,99.80
2019-03-20T10:24:15.969Z,99.90
2019-03-20T10:26:47.326Z,98.40
2019-03-20T10:29:47.882Z,98.40
2019-03-20T10:32:20.021Z,97.80
2019-03-20T10:34:48.952Z,95.30
2019-03-20T10:37:17.357Z,94.80
2019-03-20T10:39:46.027Z,93.60
2019-03-20T10:42:14.444Z,92.90
2019-03-20T10:44:42.826Z,93.30
2019-03-20T10:47:11.758Z,92.90
2019-03-20T10:49:40.250Z,91.90
2019-03-20T10:52:08.655Z,89.70
2019-03-20T10:54:37.319Z,88.60
2019-03-20T10:57:13.022Z,88.90
2019-03-20T10:59:44.393Z,89.80
2019-03-20T11:02:13.439Z,90.30
2019-03-20T11:04:44.561Z,87.50
2019-03-20T11:07:13.885Z,83.60
2019-03-20T11:09:43.910Z,83.20
2019-03-20T11:12:12.385Z,81.50
2019-03-20T11:14:43.702Z,83.10
2019-03-20T11:17:16.408Z,85.30
2019-03-20T11:19:44.809Z,85.10
2019-03-20T11:22:18.630Z,84.60
2019-03-20T11:24:49.037Z,80.20
2019-03-20T11:27:17.449Z,80.00
2019-03-20T11:29:45.837Z,79.20
2019-03-20T11:32:14.560Z,78.80
2019-03-20T11:34:46.177Z,75.90
2019-03-20T11:37:26.963Z,77.60
2019-03-20T11:39:52.795Z,76.80
2019-03-20T11:42:23.681Z,76.40
2019-03-20T11:44:53.039Z,74.40
2019-03-20T11:47:22.440Z,74.50
2019-03-20T11:49:50.830Z,73.60
2019-03-20T11:52:19.475Z,73.90
2019-03-20T11:54:47.878Z,76.80
2019-03-20T11:57:24.506Z,76.30
2019-03-20T11:59:56.901Z,78.10
2019-03-20T12:02:28.460Z,75.40
2019-03-20T12:04:58.429Z,76.50
2019-03-20T12:07:28.644Z,76.20
2019-03-20T12:09:58.878Z,75.10
2019-03-20T12:12:27.389Z,76.40
2019-03-20T12:14:55.778Z,79.30
2019-03-20T12:17:24.671Z,76.00
2019-03-20T12:19:54.429Z,75.80
2019-03-20T12:22:22.873Z,74.80
2019-03-20T12:24:51.261Z,75.30
2019-03-20T12:27:19.665Z,72.60
2019-03-20T12:29:48.067Z,76.20
2019-03-20T12:32:19.417Z,72.30
2019-03-20T12:34:49.446Z,73.30
2019-03-20T12:37:17.838Z,72.40
2019-03-20T12:39:53.028Z,74.00
2019-03-20T12:42:16.442Z,71.60
2019-03-20T12:44:48.993Z,72.90
2019-03-20T12:47:17.397Z,73.10
2019-03-20T12:49:45.784Z,72.70
2019-03-20T12:52:20.056Z,72.10
2019-03-20T12:54:53.416Z,72.80
2019-03-20T12:57:22.041Z,72.10
2019-03-20T12:59:50.438Z,73.40
2019-03-20T13:02:18.843Z,72.70
2019-03-20T13:04:56.334Z,70.50
2019-03-20T13:07:25.263Z,70.60
2019-03-20T13:09:59.576Z,70.40
2019-03-20T13:12:24.953Z,68.60
2019-03-20T13:14:53.345Z,71.00
2019-03-20T13:17:21.810Z,71.30
2019-03-20T13:19:50.442Z,70.90
2019-03-20T13:22:30.765Z,70.70
2019-03-20T13:24:59.400Z,71.90
2019-03-20T13:27:27.801Z,70.70
2019-03-20T13:29:56.198Z,70.30
2019-03-20T13:32:24.582Z,68.20
2019-03-20T13:34:53.087Z,69.30
2019-03-20T13:37:21.713Z,69.00
2019-03-20T13:39:52.973Z,69.20
2019-03-20T13:42:21.373Z,70.80
2019-03-20T13:44:52.821Z,68.90
2019-03-20T13:47:24.084Z,66.90
2019-03-20T13:49:52.459Z,64.50
2019-03-20T13:52:20.849Z,62.90
2019-03-20T13:54:49.234Z,60.40
2019-03-20T13:57:17.647Z,60.30
2019-03-20T13:59:46.391Z,61.20
2019-03-20T14:02:16.541Z,62.30
2019-03-20T14:04:47.850Z,62.70
2019-03-20T14:07:16.237Z,64.20
2019-03-20T14:09:45.925Z,63.80
2019-03-20T14:12:24.045Z,63.20
2019-03-20T14:14:58.122Z,62.40
2019-03-20T14:17:32.249Z,62.60
2019-03-20T14:20:00.727Z,62.60
2019-03-20T14:22:30.744Z,61.20
2019-03-20T14:24:59.141Z,62.10
2019-03-20T14:27:27.551Z,61.30
2019-03-20T14:29:57.566Z,61.40
2019-03-20T14:32:28.712Z,62.40
2019-03-20T14:34:58.744Z,61.00
2019-03-20T14:37:27.382Z,62.00
2019-03-20T14:39:57.412Z,59.50
2019-03-20T14:42:25.878Z,60.80
2019-03-20T14:44:54.274Z,60.50
2019-03-20T14:47:22.666Z,60.00
2019-03-20T14:49:51.044Z,59.30
2019-03-20T14:52:19.438Z,59.10
2019-03-20T14:54:47.825Z,58.90
2019-03-20T14:57:16.222Z,59.30
2019-03-20T14:59:44.850Z,58.80
2019-03-20T15:02:16.175Z,58.50
2019-03-20T15:04:47.285Z,56.70
2019-03-20T15:07:19.875Z,56.50
2019-03-20T15:09:48.276Z,56.60
2019-03-20T15:12:19.678Z,57.20
2019-03-20T15:14:49.714Z,55.50
2019-03-20T15:17:18.099Z,54.40
2019-03-20T15:19:46.608Z,54.00
2019-03-20T15:22:14.998Z,54.80
2019-03-20T15:24:46.453Z,55.10
2019-03-20T15:27:16.741Z,54.50
2019-03-20T15:29:45.401Z,56.10
2019-03-20T15:32:15.673Z,55.70
2019-03-20T15:34:46.748Z,56.40
2019-03-20T15:37:15.145Z,56.80
2019-03-20T15:39:45.178Z,56.50
2019-03-20T15:42:13.572Z,56.70
2019-03-20T15:44:41.957Z,55.90
2019-03-20T15:47:10.578Z,56.30
2019-03-20T15:49:38.969Z,56.00
2019-03-20T15:52:07.377Z,56.70
2019-03-20T15:54:42.745Z,55.50
2019-03-20T15:57:11.132Z,57.20
2019-03-20T15:59:39.766Z,57.20
2019-03-20T16:02:11.050Z,57.30
2019-03-20T16:04:39.686Z,57.70
2019-03-20T16:07:08.064Z,57.50
2019-03-20T16:09:39.435Z,57.80
2019-03-20T16:12:07.813Z,57.60
2019-03-20T16:14:40.039Z,57.80
2019-03-20T16:17:08.085Z,57.80
2019-03-20T16:19:39.490Z,57.80
2019-03-20T16:22:07.887Z,58.20
2019-03-20T16:24:42.801Z,58.90
2019-03-20T16:27:14.977Z,58.80
2019-03-20T16:29:43.321Z,58.90
2019-03-20T16:32:14.849Z,59.40
2019-03-20T16:34:45.961Z,60.40
2019-03-20T16:37:14.488Z,60.70
2019-03-20T16:39:42.876Z,61.70
2019-03-20T16:42:14.257Z,62.30
2019-03-20T16:44:43.078Z,63.70
2019-03-20T16:47:11.531Z,65.00
2019-03-20T16:49:39.928Z,66.10
2019-03-20T16:52:08.313Z,67.30
2019-03-20T16:54:38.729Z,67.80
2019-03-20T16:57:07.898Z,68.60
2019-03-20T16:59:36.333Z,69.20
2019-03-20T17:02:04.752Z,70.80
2019-03-20T17:04:33.433Z,71.40
2019-03-20T17:07:02.780Z,73.40
2019-03-20T17:09:31.454Z,73.60
2019-03-20T17:11:59.855Z,73.90
2019-03-20T17:14:28.265Z,74.30
2019-03-20T17:16:56.653Z,75.40
2019-03-20T17:19:25.033Z,76.10
2019-03-20T17:21:53.437Z,77.40
2019-03-20T17:24:21.829Z,78.10
2019-03-20T17:26:50.213Z,79.00
2019-03-20T17:29:18.605Z,80.50
2019-03-20T17:31:46.992Z,80.80
2019-03-20T17:34:15.377Z,81.30
2019-03-20T17:36:44.003Z,82.20
2019-03-20T17:39:12.635Z,82.60
2019-03-20T17:41:43.171Z,83.80
2019-03-20T17:44:11.585Z,85.20
2019-03-20T17:46:39.961Z,86.30
2019-03-20T17:49:08.358Z,87.80
2019-03-20T17:51:36.739Z,89.20
2019-03-20T17:54:24.513Z,90.00
2019-03-20T17:56:54.361Z,90.20
2019-03-20T17:59:24.387Z,91.20
2019-03-20T18:01:52.798Z,92.10
2019-03-20T18:04:21.193Z,92.80
2019-03-20T18:06:49.703Z,93.70
2019-03-20T18:09:18.335Z,94.10
2019-03-20T18:11:47.649Z,95.00
2019-03-20T18:14:16.898Z,96.40
2019-03-20T18:16:45.308Z,97.90
2019-03-20T18:19:13.743Z,99.00
2019-03-20T18:21:42.126Z,99.90
2019-03-20T18:24:10.542Z,99.90
2019-03-20T18:26:38.929Z,99.90
2019-03-20T18:29:07.330Z,99.90
2019-03-20T18:31:45.490Z,99.90
2019-03-20T18:34:05.870Z,99.90
2019-03-20T18:36:34.535Z,99.90
2019-03-20T18:39:05.628Z,99.90
2019-03-20T18:41:36.711Z,99.90
2019-03-20T18:44:06.630Z,99.90
2019-03-20T18:46:35.029Z,99.90
2019-03-20T18:49:03.446Z,99.90
2019-03-20T18:51:31.951Z,99.90
2019-03-20T18:54:03.348Z,99.90
2019-03-20T18:56:32.290Z,99.90
2019-03-20T18:59:06.829Z,99.90
2019-03-20T19:01:38.166Z,99.90
2019-03-20T19:04:08.215Z,99.90
2019-03-20T19:06:36.918Z,99.90
2019-03-20T19:09:08.529Z,99.90
2019-03-20T19:11:37.025Z,99.90
2019-03-20T19:14:11.438Z,99.90
2019-03-20T19:16:39.898Z,99.90
2019-03-20T19:19:11.364Z,99.90
2019-03-20T19:21:44.431Z,99.90
2019-03-20T19:24:13.068Z,99.90
2019-03-20T19:26:41.773Z,99.90
2019-03-20T19:29:10.194Z,99.90
2019-03-20T19:31:41.428Z,99.90
2019-03-20T19:34:10.136Z,99.90
2019-03-20T19:36:45.929Z,99.90
2019-03-20T19:39:14.326Z,99.90
2019-03-20T19:41:42.731Z,99.90
2019-03-20T19:44:14.198Z,99.90
2019-03-20T19:46:42.594Z,99.90
2019-03-20T19:49:13.966Z,99.90
2019-03-20T19:51:42.384Z,99.90
2019-03-20T19:54:13.643Z,99.90
2019-03-20T19:56:45.054Z,99.90
2019-03-20T19:59:14.458Z,99.90
2019-03-20T20:01:42.865Z,99.90
2019-03-20T20:04:20.285Z,99.90
2019-03-20T20:06:48.693Z,99.90
2019-03-20T20:09:19.821Z,99.90
2019-03-20T20:11:48.568Z,99.90
2019-03-20T20:14:17.037Z,99.90
2019-03-20T20:16:47.000Z,99.90
2019-03-20T20:19:18.491Z,99.90
2019-03-20T20:21:46.905Z,99.90
2019-03-20T20:24:15.451Z,99.90
2019-03-20T20:26:46.169Z,99.90
2019-03-20T20:29:16.194Z,99.90
2019-03-20T20:31:44.684Z,99.90
2019-03-20T20:34:16.235Z,99.90
2019-03-20T20:36:50.433Z,99.90
2019-03-20T20:39:18.835Z,99.90
2019-03-20T20:41:47.226Z,99.90
2019-03-20T20:44:15.742Z,99.90
2019-03-20T20:46:44.357Z,99.90
2019-03-20T20:49:15.869Z,99.90
2019-03-20T20:51:47.302Z,99.90
2019-03-20T20:54:18.642Z,99.90
2019-03-20T20:56:47.043Z,99.90
2019-03-20T20:59:15.486Z,99.90
2019-03-20T21:01:46.797Z,99.90
2019-03-20T21:04:16.854Z,99.90
2019-03-20T21:06:47.049Z,99.90
2019-03-20T21:09:15.772Z,99.90
2019-03-20T21:11:47.279Z,99.90
2019-03-20T21:14:15.787Z,99.90
2019-03-20T21:16:44.186Z,99.90
2019-03-20T21:19:36.248Z,99.90
2019-03-20T21:22:31.325Z,99.90
2019-03-20T21:25:11.842Z,99.90
2019-03-20T21:28:02.729Z,99.90
2019-03-20T21:30:46.007Z,99.90
2019-03-20T21:33:31.142Z,99.90
2019-03-20T21:36:23.808Z,99.90
2019-03-20T21:38:53.984Z,99.90
2019-03-20T21:41:31.342Z,99.90
2019-03-20T21:44:36.253Z,99.90
2019-03-20T21:47:07.726Z,99.90
2019-03-20T21:49:38.807Z,99.90
2019-03-20T21:52:10.123Z,99.90
2019-03-20T21:55:02.039Z,99.90
2019-03-20T21:57:51.838Z,99.90
2019-03-20T22:01:06.025Z,99.90
2019-03-20T22:03:37.081Z,99.90
2019-03-20T22:06:08.558Z,99.90
2019-03-20T22:08:38.486Z,99.90
2019-03-20T22:11:32.551Z,99.90
2019-03-20T22:14:12.193Z,99.90
2019-03-20T22:17:11.894Z,99.90
2019-03-20T22:19:50.685Z,99.90
2019-03-20T22:22:43.098Z,99.90
2019-03-20T22:25:17.526Z,99.90
2019-03-20T22:28:05.542Z,99.90
2019-03-20T22:30:35.600Z,99.90
2019-03-20T22:33:35.723Z,99.90
2019-03-20T22:36:06.792Z,99.90
2019-03-20T22:38:41.067Z,99.90
2019-03-20T22:41:38.574Z,99.90
2019-03-20T22:44:09.605Z,99.90
2019-03-20T22:47:12.681Z,99.90
2019-03-20T22:49:46.821Z,99.90
2019-03-20T22:52:27.477Z,99.90
2019-03-20T22:55:31.678Z,99.90
2019-03-20T22:58:21.081Z,99.90
2019-03-20T23:00:58.560Z,99.90
2019-03-20T23:03:47.819Z,99.90
2019-03-20T23:06:16.292Z,99.90
2019-03-20T23:08:44.679Z,99.90
2019-03-20T23:11:15.847Z,99.90
2019-03-20T23:13:47.555Z,99.90
2019-03-20T23:16:19.345Z,99.90
2019-03-20T23:18:49.654Z,99.90
2019-03-20T23:21:20.878Z,99.90
2019-03-20T23:23:53.580Z,99.90
2019-03-20T23:26:21.987Z,99.90
2019-03-20T23:28:50.565Z,99.90
2019-03-20T23:31:18.965Z,99.90
2019-03-20T23:33:50.381Z,99.90
2019-03-20T23:36:23.450Z,99.90
2019-03-20T23:38:54.562Z,99.90
2019-03-20T23:41:23.211Z,99.90
2019-03-20T23:43:53.086Z,99.90
2019-03-20T23:46:21.942Z,99.90
2019-03-20T23:48:55.105Z,99.90
2019-03-20T23:51:26.985Z,99.90
2019-03-20T23:53:56.809Z,99.90
2019-03-20T23:56:29.989Z,99.90
2019-03-20T23:58:58.390Z,99.90
